createdAt,value
2018-10-01T00:00:33.518Z,5.33
2018-10-01T00:02:36.611Z,5.17
2018-10-01T00:04:39.670Z,4.72
2018-10-01T00:06:42.742Z,5.37
2018-10-01T00:08:45.764Z,4.60
2018-10-01T00:10:48.817Z,5.37
2018-10-01T00:12:53.088Z,5.33
2018-10-01T00:14:56.154Z,4.47
2018-10-01T00:16:59.203Z,5.15
2018-10-01T00:19:02.263Z,5.03
2018-10-01T00:21:11.415Z,5.20
2018-10-01T00:23:14.434Z,5.22
2018-10-01T00:25:17.956Z,5.97
2018-10-01T00:27:22.438Z,4.87
2018-10-01T00:29:25.473Z,5.00
2018-10-01T00:31:28.523Z,5.30
2018-10-01T00:33:31.829Z,5.78
2018-10-01T00:35:34.871Z,5.35
2018-10-01T00:37:37.969Z,5.35
2018-10-01T00:39:41.393Z,6.00
2018-10-01T00:41:44.542Z,5.33
2018-10-01T00:43:47.558Z,5.22
2018-10-01T00:45:51.949Z,6.03
2018-10-01T00:47:54.919Z,5.78
2018-10-01T00:49:57.942Z,5.28
2018-10-01T00:52:00.977Z,5.78
2018-10-01T00:54:04.000Z,6.10
2018-10-01T00:56:07.070Z,6.62
2018-10-01T00:58:10.106Z,5.75
2018-10-01T01:00:13.156Z,6.00
2018-10-01T01:02:16.130Z,5.53
2018-10-01T01:04:19.241Z,5.65
2018-10-01T01:06:23.843Z,6.10
2018-10-01T01:08:26.803Z,5.50
2018-10-01T01:10:29.819Z,6.20
2018-10-01T01:12:32.850Z,5.42
2018-10-01T01:14:35.999Z,5.55
2018-10-01T01:16:39.053Z,5.55
2018-10-01T01:18:42.077Z,6.03
2018-10-01T01:20:45.162Z,6.00
2018-10-01T01:22:48.202Z,5.20
2018-10-01T01:24:52.962Z,5.00
2018-10-01T01:26:55.997Z,5.60
2018-10-01T01:28:59.351Z,4.75
2018-10-01T01:31:02.386Z,4.33
2018-10-01T01:33:05.597Z,4.80
2018-10-01T01:35:08.658Z,5.00
2018-10-01T01:37:11.681Z,4.70
2018-10-01T01:39:14.720Z,5.00
2018-10-01T01:41:18.022Z,4.42
2018-10-01T01:43:23.132Z,4.75
2018-10-01T01:45:26.136Z,4.65
2018-10-01T01:47:29.174Z,4.92
2018-10-01T01:49:32.174Z,5.60
2018-10-01T01:51:35.546Z,6.33
2018-10-01T01:53:38.548Z,5.75
2018-10-01T01:55:41.593Z,6.58
2018-10-01T01:57:44.617Z,6.05
2018-10-01T01:59:47.579Z,6.50
2018-10-01T02:01:52.102Z,7.33
2018-10-01T02:03:55.421Z,6.10
2018-10-01T02:05:58.557Z,5.95
2018-10-01T02:08:01.556Z,5.47
2018-10-01T02:10:04.817Z,5.70
2018-10-01T02:12:07.821Z,5.85
2018-10-01T02:14:10.809Z,7.15
2018-10-01T02:16:13.835Z,6.75
2018-10-01T02:18:16.817Z,6.08
2018-10-01T02:20:19.831Z,5.95
2018-10-01T02:22:24.698Z,6.90
2018-10-01T02:24:27.665Z,6.60
2018-10-01T02:26:30.673Z,7.60
2018-10-01T02:28:33.669Z,7.05
2018-10-01T02:30:36.670Z,5.97
2018-10-01T02:32:39.621Z,7.20
2018-10-01T02:34:42.931Z,6.92
2018-10-01T02:36:45.923Z,6.67
2018-10-01T02:38:48.901Z,6.60
2018-10-01T02:40:53.734Z,6.90
2018-10-01T02:42:56.717Z,7.65
2018-10-01T02:44:59.674Z,8.98
2018-10-01T02:47:02.703Z,7.58
2018-10-01T02:49:05.732Z,7.60
2018-10-01T02:51:09.008Z,7.65
2018-10-01T02:53:17.726Z,6.83
2018-10-01T02:55:22.181Z,7.05
2018-10-01T02:57:25.443Z,7.78
2018-10-01T02:59:28.554Z,6.65
2018-10-01T03:01:31.508Z,6.62
2018-10-01T03:03:34.514Z,8.50
2018-10-01T03:05:37.498Z,7.90
2018-10-01T03:07:40.793Z,6.08
2018-10-01T03:09:43.758Z,7.60
2018-10-01T03:11:46.733Z,6.62
2018-10-01T03:13:49.771Z,7.20
2018-10-01T03:15:54.235Z,7.37
2018-10-01T03:17:57.210Z,7.90
2018-10-01T03:20:00.180Z,8.55
2018-10-01T03:22:03.233Z,7.95
2018-10-01T03:24:06.526Z,8.15
2018-10-01T03:26:09.539Z,6.55
2018-10-01T03:28:12.558Z,7.45
2018-10-01T03:30:15.512Z,6.87
2018-10-01T03:32:18.513Z,6.72
2018-10-01T03:34:23.138Z,7.10
2018-10-01T03:36:26.582Z,7.40
2018-10-01T03:38:29.530Z,7.17
2018-10-01T03:40:32.525Z,7.35
2018-10-01T03:42:35.618Z,7.30
2018-10-01T03:44:38.606Z,7.80
2018-10-01T03:46:41.627Z,7.60
2018-10-01T03:48:44.809Z,6.67
2018-10-01T03:50:48.095Z,7.03
2018-10-01T03:52:52.413Z,8.10
2018-10-01T03:54:55.378Z,7.80
2018-10-01T03:56:58.524Z,7.55
2018-10-01T03:59:01.520Z,8.18
2018-10-01T04:01:04.536Z,7.25
2018-10-01T04:03:07.612Z,8.30
2018-10-01T04:05:10.600Z,6.85
2018-10-01T04:07:13.625Z,7.55
2018-10-01T04:09:16.610Z,7.97
2018-10-01T04:11:19.598Z,8.10
2018-10-01T04:13:24.274Z,7.92
2018-10-01T04:15:27.293Z,8.60
2018-10-01T04:17:30.252Z,8.58
2018-10-01T04:19:33.247Z,8.40
2018-10-01T04:21:36.307Z,7.75
2018-10-01T04:23:39.227Z,6.85
2018-10-01T04:25:42.238Z,7.90
2018-10-01T04:27:45.216Z,8.25
2018-10-01T04:29:48.202Z,8.45
2018-10-01T04:31:51.728Z,7.00
2018-10-01T04:33:54.742Z,6.80
2018-10-01T04:35:57.703Z,7.80
2018-10-01T04:38:00.740Z,9.13
2018-10-01T04:40:03.866Z,6.97
2018-10-01T04:42:06.848Z,6.20
2018-10-01T04:44:10.377Z,8.30
2018-10-01T04:46:13.352Z,7.80
2018-10-01T04:48:16.315Z,8.38
2018-10-01T04:50:19.358Z,7.85
2018-10-01T04:52:23.674Z,7.42
2018-10-01T04:54:26.631Z,7.35
2018-10-01T04:56:29.769Z,7.62
2018-10-01T04:58:32.953Z,7.20
2018-10-01T05:00:35.818Z,7.75
2018-10-01T05:02:38.830Z,7.10
2018-10-01T05:04:41.845Z,8.00
2018-10-01T05:06:44.856Z,6.20
2018-10-01T05:08:47.873Z,5.87
2018-10-01T05:10:52.766Z,7.42
2018-10-01T05:12:55.731Z,6.92
2018-10-01T05:14:58.731Z,10.78
2018-10-01T05:17:01.765Z,7.50
2018-10-01T05:19:04.889Z,7.20
2018-10-01T05:21:07.894Z,7.87
2018-10-01T05:23:10.910Z,8.30
2018-10-01T05:25:13.915Z,7.85
2018-10-01T05:27:16.952Z,8.20
2018-10-01T05:29:20.213Z,7.08
2018-10-01T05:31:24.417Z,8.40
2018-10-01T05:33:27.393Z,8.03
2018-10-01T05:35:30.381Z,7.50
2018-10-01T05:37:33.333Z,7.17
2018-10-01T05:39:36.302Z,7.25
2018-10-01T05:41:39.544Z,6.62
2018-10-01T05:43:42.821Z,7.77
2018-10-01T05:45:45.768Z,7.45
2018-10-01T05:47:48.793Z,8.95
2018-10-01T05:49:53.159Z,6.72
2018-10-01T05:51:56.129Z,7.83
2018-10-01T05:53:59.277Z,7.80
2018-10-01T05:56:02.311Z,7.55
2018-10-01T05:58:05.397Z,8.03
2018-10-01T06:00:08.555Z,8.10
2018-10-01T06:02:11.613Z,8.43
2018-10-01T06:04:14.615Z,7.70
2018-10-01T06:06:17.881Z,6.35
2018-10-01T06:08:22.579Z,7.40
2018-10-01T06:10:25.553Z,7.80
2018-10-01T06:12:28.592Z,6.97
2018-10-01T06:14:31.568Z,6.50
2018-10-01T06:16:34.564Z,6.72
2018-10-01T06:18:37.624Z,7.90
2018-10-01T06:20:40.652Z,7.70
2018-10-01T06:22:43.602Z,7.60
2018-10-01T06:24:46.638Z,7.08
2018-10-01T06:26:49.640Z,6.85
2018-10-01T06:28:53.882Z,7.75
2018-10-01T06:30:56.904Z,7.90
2018-10-01T06:33:00.122Z,7.78
2018-10-01T06:35:03.153Z,7.60
2018-10-01T06:37:06.136Z,7.83
2018-10-01T06:39:10.322Z,7.35
2018-10-01T06:41:13.341Z,7.58
2018-10-01T06:43:16.345Z,6.95
2018-10-01T06:45:19.358Z,8.03
2018-10-01T06:47:23.742Z,6.95
2018-10-01T06:49:26.765Z,7.30
2018-10-01T06:51:29.730Z,6.97
2018-10-01T06:53:32.689Z,7.42
2018-10-01T06:55:35.678Z,7.90
2018-10-01T06:57:38.666Z,7.83
2018-10-01T06:59:41.658Z,10.28
2018-10-01T07:01:44.646Z,53.60
2018-10-01T07:03:47.646Z,52.60
2018-10-01T07:05:51.342Z,57.97
2018-10-01T07:07:54.182Z,26.62
2018-10-01T07:09:57.120Z,37.70
2018-10-01T07:12:00.090Z,32.43
2018-10-01T07:14:03.057Z,38.53
2018-10-01T07:16:06.029Z,34.13
2018-10-01T07:18:08.964Z,21.57
2018-10-01T07:20:11.972Z,7.90
2018-10-01T07:22:14.914Z,7.10
2018-10-01T07:24:17.923Z,7.50
2018-10-01T07:26:22.076Z,7.55
2018-10-01T07:28:25.001Z,7.87
2018-10-01T07:30:28.043Z,7.00
2018-10-01T07:32:31.016Z,7.00
2018-10-01T07:34:34.166Z,7.07
2018-10-01T07:36:37.129Z,8.67
2018-10-01T07:38:40.070Z,7.67
2018-10-01T07:40:42.974Z,7.77
2018-10-01T07:42:45.970Z,7.00
2018-10-01T07:44:48.962Z,7.70
2018-10-01T07:46:53.313Z,8.57
2018-10-01T07:48:56.273Z,9.63
2018-10-01T07:50:59.290Z,7.77
2018-10-01T07:53:02.164Z,7.83
2018-10-01T07:55:05.675Z,8.93
2018-10-01T07:57:08.656Z,8.80
2018-10-01T07:59:11.581Z,7.30
2018-10-01T08:01:14.569Z,7.67
2018-10-01T08:03:17.566Z,7.70
2018-10-01T08:05:21.800Z,7.70
2018-10-01T08:07:24.818Z,7.90
2018-10-01T08:09:27.771Z,9.03
2018-10-01T08:11:30.725Z,8.97
2018-10-01T08:13:33.708Z,8.83
2018-10-01T08:15:36.639Z,8.70
2018-10-01T08:17:40.179Z,8.30
2018-10-01T08:19:43.251Z,9.70
2018-10-01T08:21:46.184Z,8.77
2018-10-01T08:23:49.390Z,10.10
2018-10-01T08:25:53.979Z,10.70
2018-10-01T08:27:56.950Z,10.00
2018-10-01T08:30:00.019Z,10.27
2018-10-01T08:32:03.006Z,12.90
2018-10-01T08:34:05.986Z,11.87
2018-10-01T08:36:08.996Z,12.77
2018-10-01T08:38:12.034Z,12.10
2018-10-01T08:40:14.957Z,12.53
2018-10-01T08:42:18.299Z,12.53
2018-10-01T08:44:22.883Z,12.07
2018-10-01T08:46:25.850Z,12.77
2018-10-01T08:48:29.896Z,15.47
2018-10-01T08:50:36.395Z,12.40
2018-10-01T08:53:16.362Z,12.97
2018-10-01T08:55:19.769Z,13.77
2018-10-01T08:57:24.440Z,13.97
2018-10-01T08:59:27.446Z,14.13
2018-10-01T09:01:30.482Z,13.17
2018-10-01T09:03:33.437Z,14.90
2018-10-01T09:05:36.522Z,15.97
2018-10-01T09:07:39.482Z,14.23
2018-10-01T09:09:42.454Z,15.10
2018-10-01T09:11:45.447Z,13.60
2018-10-01T09:13:48.485Z,14.63
2018-10-01T09:15:53.237Z,17.47
2018-10-01T09:17:56.261Z,16.10
2018-10-01T09:19:59.333Z,15.93
2018-10-01T09:22:02.277Z,16.13
2018-10-01T09:24:05.300Z,17.07
2018-10-01T09:26:08.334Z,15.40
2018-10-01T09:28:11.352Z,15.37
2018-10-01T09:30:14.406Z,16.13
2018-10-01T09:32:17.425Z,13.20
2018-10-01T09:34:22.083Z,15.33
2018-10-01T09:36:25.104Z,14.80
2018-10-01T09:38:28.162Z,15.00
2018-10-01T09:40:31.308Z,14.43
2018-10-01T09:42:34.303Z,15.10
2018-10-01T09:44:37.387Z,13.73
2018-10-01T09:46:40.469Z,12.27
2018-10-01T09:48:43.771Z,14.30
2018-10-01T09:50:46.753Z,14.00
2018-10-01T09:52:49.751Z,14.07
2018-10-01T09:54:54.359Z,14.60
2018-10-01T09:56:57.419Z,15.77
2018-10-01T09:59:00.479Z,13.60
2018-10-01T10:01:09.080Z,13.67
2018-10-01T10:03:12.286Z,13.80
2018-10-01T10:05:15.333Z,13.63
2018-10-01T10:07:18.630Z,14.43
2018-10-01T10:09:23.718Z,13.10
2018-10-01T10:11:26.867Z,13.77
2018-10-01T10:13:29.887Z,13.53
2018-10-01T10:15:32.928Z,13.43
2018-10-01T10:17:35.995Z,12.50
2018-10-01T10:19:39.040Z,12.80
2018-10-01T10:21:42.085Z,12.00
2018-10-01T10:23:45.141Z,11.90
2018-10-01T10:25:48.164Z,13.50
2018-10-01T10:27:52.569Z,10.90
2018-10-01T10:29:55.641Z,13.23
2018-10-01T10:31:58.697Z,11.60
2018-10-01T10:34:01.736Z,11.43
2018-10-01T10:36:04.803Z,10.90
2018-10-01T10:38:07.921Z,11.53
2018-10-01T10:40:10.959Z,11.83
2018-10-01T10:42:13.976Z,10.17
2018-10-01T10:44:17.016Z,10.93
2018-10-01T10:46:20.034Z,10.63
2018-10-01T10:48:24.112Z,11.17
2018-10-01T10:50:27.190Z,11.30
2018-10-01T10:52:31.045Z,11.13
2018-10-01T10:54:34.073Z,11.53
2018-10-01T10:56:37.192Z,11.80
2018-10-01T10:58:40.164Z,10.07
2018-10-01T11:00:43.197Z,10.43
2018-10-01T11:02:46.239Z,9.30
2018-10-01T11:04:49.368Z,9.17
2018-10-01T11:06:54.200Z,10.50
2018-10-01T11:08:57.209Z,8.50
2018-10-01T11:11:00.285Z,10.43
2018-10-01T11:13:03.327Z,11.10
2018-10-01T11:15:07.142Z,10.40
2018-10-01T11:17:10.108Z,10.70
2018-10-01T11:19:13.245Z,11.03
2018-10-01T11:21:16.147Z,9.80
2018-10-01T11:23:19.487Z,11.80
2018-10-01T11:25:24.272Z,10.47
2018-10-01T11:27:27.213Z,8.80
2018-10-01T11:29:30.657Z,8.23
2018-10-01T11:31:33.736Z,9.73
2018-10-01T11:33:36.755Z,9.60
2018-10-01T11:35:39.801Z,9.60
2018-10-01T11:37:42.851Z,8.97
2018-10-01T11:39:45.950Z,9.20
2018-10-01T11:41:48.959Z,10.53
2018-10-01T11:43:53.848Z,9.87
2018-10-01T11:45:56.913Z,10.20
2018-10-01T11:47:59.957Z,10.50
2018-10-01T11:50:03.011Z,11.97
2018-10-01T11:52:06.159Z,11.30
2018-10-01T11:54:09.184Z,10.07
2018-10-01T11:56:12.221Z,11.43
2018-10-01T11:58:15.286Z,11.70
2018-10-01T12:00:18.920Z,13.27
2018-10-01T12:02:23.795Z,12.30
2018-10-01T12:04:26.880Z,13.10
2018-10-01T12:06:29.895Z,10.50
2018-10-01T12:08:32.910Z,11.20
2018-10-01T12:10:36.025Z,11.27
2018-10-01T12:12:39.039Z,10.33
2018-10-01T12:14:42.092Z,7.83
2018-10-01T12:16:45.191Z,8.13
2018-10-01T12:18:48.399Z,7.40
2018-10-01T12:20:52.967Z,7.77
2018-10-01T12:22:55.988Z,7.40
2018-10-01T12:24:59.392Z,7.97
2018-10-01T12:27:02.406Z,8.10
2018-10-01T12:29:05.724Z,7.27
2018-10-01T12:31:09.335Z,6.67
2018-10-01T12:33:12.397Z,7.77
2018-10-01T12:35:15.432Z,7.50
2018-10-01T12:37:18.457Z,7.67
2018-10-01T12:39:23.401Z,7.73
2018-10-01T12:41:26.416Z,7.20
2018-10-01T12:43:29.471Z,7.27
2018-10-01T12:45:32.593Z,6.87
2018-10-01T12:47:35.646Z,6.80
2018-10-01T12:49:39.017Z,8.07
2018-10-01T12:51:42.142Z,6.90
2018-10-01T12:53:45.069Z,7.97
2018-10-01T12:55:48.192Z,6.67
2018-10-01T12:57:52.774Z,7.30
2018-10-01T12:59:55.799Z,6.93
2018-10-01T13:01:58.844Z,7.63
2018-10-01T13:04:01.910Z,7.77
2018-10-01T13:06:05.030Z,6.77
2018-10-01T13:08:08.059Z,8.60
2018-10-01T13:10:11.244Z,9.20
2018-10-01T13:12:14.343Z,6.67
2018-10-01T13:14:17.307Z,7.63
2018-10-01T13:16:20.359Z,7.33
2018-10-01T13:18:23.483Z,7.50
2018-10-01T13:20:26.503Z,7.80
2018-10-01T13:22:29.540Z,7.80
2018-10-01T13:24:32.595Z,8.20
2018-10-01T13:26:35.621Z,6.87
2018-10-01T13:28:38.664Z,6.43
2018-10-01T13:30:41.834Z,6.27
2018-10-01T13:32:44.901Z,6.93
2018-10-01T13:34:47.920Z,5.50
2018-10-01T13:36:52.372Z,11.87
2018-10-01T13:38:55.367Z,8.27
2018-10-01T13:40:58.398Z,7.90
2018-10-01T13:43:01.461Z,6.67
2018-10-01T13:45:04.655Z,6.50
2018-10-01T13:47:07.711Z,6.27
2018-10-01T13:49:10.783Z,9.30
2018-10-01T13:51:14.141Z,8.80
2018-10-01T13:53:17.159Z,10.63
2018-10-01T13:55:20.450Z,7.93
2018-10-01T13:57:24.821Z,6.77
2018-10-01T13:59:27.853Z,6.60
2018-10-01T14:01:30.882Z,6.10
2018-10-01T14:03:33.933Z,6.37
2018-10-01T14:05:37.028Z,6.20
2018-10-01T14:07:40.056Z,7.03
2018-10-01T14:09:43.083Z,8.67
2018-10-01T14:11:46.128Z,6.30
2018-10-01T14:13:49.231Z,6.53
2018-10-01T14:15:53.917Z,6.40
2018-10-01T14:17:56.920Z,6.00
2018-10-01T14:20:00.171Z,6.70
2018-10-01T14:22:03.073Z,7.23
2018-10-01T14:24:06.125Z,6.47
2018-10-01T14:26:09.188Z,7.77
2018-10-01T14:28:12.267Z,3.60
2018-10-01T14:30:15.354Z,2.17
2018-10-01T14:32:18.572Z,2.20
2018-10-01T14:34:23.357Z,2.53
2018-10-01T14:36:26.406Z,2.10
2018-10-01T14:38:29.471Z,2.10
2018-10-01T14:40:32.537Z,1.90
2018-10-01T14:42:35.662Z,1.83
2018-10-01T14:44:38.689Z,2.20
2018-10-01T14:46:41.720Z,2.40
2018-10-01T14:48:44.822Z,2.00
2018-10-01T14:50:47.924Z,1.67
2018-10-01T14:52:52.020Z,9.47
2018-10-01T14:54:55.081Z,5.13
2018-10-01T14:56:58.243Z,2.93
2018-10-01T14:59:01.213Z,1.90
2018-10-01T15:01:04.326Z,1.70
2018-10-01T15:03:07.352Z,1.97
2018-10-01T15:05:10.369Z,1.77
2018-10-01T15:07:13.863Z,1.93
2018-10-01T15:09:16.884Z,3.10
2018-10-01T15:11:19.896Z,2.00
2018-10-01T15:13:25.160Z,2.30
2018-10-01T15:15:29.669Z,1.97
2018-10-01T15:17:32.725Z,2.20
2018-10-01T15:19:36.128Z,2.00
2018-10-01T15:21:39.262Z,1.90
2018-10-01T15:23:42.321Z,2.50
2018-10-01T15:25:45.354Z,3.20
2018-10-01T15:27:48.389Z,2.27
2018-10-01T15:29:52.588Z,1.90
2018-10-01T15:31:58.356Z,1.47
2018-10-01T15:36:14.644Z,2.40
2018-10-01T15:38:17.661Z,1.80
2018-10-01T15:40:22.162Z,1.70
2018-10-01T15:42:25.643Z,3.00
2018-10-01T15:44:28.719Z,2.93
2018-10-01T15:46:32.314Z,4.73
2018-10-01T15:48:35.952Z,3.47
2018-10-01T15:50:39.364Z,3.17
2018-10-01T15:52:42.424Z,5.03
2018-10-01T15:54:45.864Z,5.20
2018-10-01T15:56:49.213Z,3.37
2018-10-01T15:58:54.132Z,2.47
2018-10-01T16:00:57.152Z,2.10
2018-10-01T16:03:00.145Z,2.40
2018-10-01T16:05:03.301Z,2.37
2018-10-01T16:07:06.392Z,20.47
2018-10-01T16:09:10.592Z,32.23
2018-10-01T16:11:13.758Z,35.43
2018-10-01T16:13:16.859Z,30.60
2018-10-01T16:15:19.911Z,12.47
2018-10-01T16:17:25.025Z,3.63
2018-10-01T16:19:28.129Z,4.53
2018-10-01T16:21:31.545Z,5.93
2018-10-01T16:23:34.571Z,5.40
2018-10-01T16:25:37.730Z,8.13
2018-10-01T16:27:40.733Z,7.17
2018-10-01T16:29:43.852Z,3.33
2018-10-01T16:31:46.968Z,3.07
2018-10-01T16:33:50.167Z,2.83
2018-10-01T16:35:54.705Z,4.03
2018-10-01T16:37:57.808Z,3.27
2018-10-01T16:40:00.868Z,3.57
2018-10-01T16:42:04.358Z,4.40
2018-10-01T16:44:07.390Z,4.10
2018-10-01T16:46:10.453Z,4.00
2018-10-01T16:48:13.798Z,10.70
2018-10-01T16:50:16.832Z,6.97
2018-10-01T16:52:19.996Z,9.93
2018-10-01T16:54:24.928Z,14.37
2018-10-01T16:56:28.046Z,9.17
2018-10-01T16:58:31.068Z,6.27
2018-10-01T17:00:34.076Z,4.30
2018-10-01T17:02:37.125Z,3.57
2018-10-01T17:04:40.272Z,4.20
2018-10-01T17:06:43.482Z,3.80
2018-10-01T17:08:46.541Z,4.37
2018-10-01T17:10:49.624Z,4.07
2018-10-01T17:12:54.484Z,4.13
2018-10-01T17:14:57.544Z,4.00
2018-10-01T17:17:00.613Z,3.80
2018-10-01T17:19:04.022Z,3.77
2018-10-01T17:21:07.103Z,3.70
2018-10-01T17:23:10.220Z,3.77
2018-10-01T17:25:13.351Z,4.20
2018-10-01T17:27:16.383Z,4.23
2018-10-01T17:29:19.482Z,4.07
2018-10-01T17:31:24.312Z,3.70
2018-10-01T17:33:27.372Z,4.40
2018-10-01T17:35:30.531Z,3.40
2018-10-01T17:37:33.591Z,3.47
2018-10-01T17:39:36.636Z,3.47
2018-10-01T17:41:40.326Z,3.60
2018-10-01T17:43:43.440Z,4.27
2018-10-01T17:45:55.125Z,4.07
2018-10-01T17:48:04.487Z,2.73
2018-10-01T17:50:13.824Z,3.00
2018-10-01T17:52:24.567Z,3.53
2018-10-01T17:54:34.205Z,4.30
2018-10-01T17:56:38.318Z,4.93
2018-10-01T17:58:41.886Z,3.50
2018-10-01T18:00:45.063Z,3.23
2018-10-01T18:02:48.485Z,3.57
2018-10-01T18:04:53.069Z,3.67
2018-10-01T18:06:56.097Z,3.17
2018-10-01T18:08:59.203Z,2.23
2018-10-01T18:11:02.385Z,2.60
2018-10-01T18:13:05.497Z,2.40
2018-10-01T18:15:09.241Z,2.23
2018-10-01T18:17:12.275Z,2.23
2018-10-01T18:19:15.345Z,1.67
2018-10-01T18:21:18.432Z,2.30
2018-10-01T18:23:23.034Z,1.70
2018-10-01T18:25:26.097Z,1.70
2018-10-01T18:27:29.180Z,1.60
2018-10-01T18:29:32.233Z,1.63
2018-10-01T18:31:35.324Z,1.70
2018-10-01T18:33:38.344Z,1.60
2018-10-01T18:35:41.415Z,1.90
2018-10-01T18:37:44.552Z,1.90
2018-10-01T18:39:47.556Z,2.23
2018-10-01T18:41:52.280Z,1.97
2018-10-01T18:43:55.388Z,1.87
2018-10-01T18:45:58.440Z,2.13
2018-10-01T18:48:01.508Z,1.90
2018-10-01T18:50:04.984Z,1.67
2018-10-01T18:52:08.129Z,2.60
2018-10-01T18:54:11.203Z,1.80
2018-10-01T18:56:14.304Z,4.27
2018-10-01T18:58:17.340Z,4.40
2018-10-01T19:00:20.503Z,3.70
2018-10-01T19:02:24.520Z,2.00
2018-10-01T19:04:27.565Z,2.13
2018-10-01T19:06:30.883Z,1.83
2018-10-01T19:08:34.037Z,1.73
2018-10-01T19:10:37.108Z,1.70
2018-10-01T19:12:40.151Z,1.90
2018-10-01T19:14:48.974Z,1.70
2018-10-01T19:16:53.228Z,1.90
2018-10-01T19:18:56.295Z,2.00
2018-10-01T19:20:59.492Z,1.70
2018-10-01T19:23:02.588Z,2.07
2018-10-01T19:25:05.883Z,2.10
2018-10-01T19:27:09.048Z,1.87
2018-10-01T19:29:12.110Z,2.17
2018-10-01T19:31:15.169Z,2.00
2018-10-01T19:33:18.256Z,1.63
2018-10-01T19:35:23.038Z,1.83
2018-10-01T19:37:26.255Z,2.03
2018-10-01T19:39:29.529Z,1.80
2018-10-01T19:41:32.605Z,2.10
2018-10-01T19:43:35.655Z,2.10
2018-10-01T19:45:39.177Z,1.70
2018-10-01T19:47:42.239Z,2.10
2018-10-01T19:49:45.932Z,2.10
2018-10-01T19:51:49.040Z,1.80
2018-10-01T19:53:52.359Z,1.67
2018-10-01T19:55:55.424Z,1.97
2018-10-01T19:57:58.633Z,1.93
2018-10-01T20:00:01.767Z,1.70
2018-10-01T20:02:04.888Z,1.60
2018-10-01T20:04:07.911Z,1.93
2018-10-01T20:06:10.979Z,2.03
2018-10-01T20:08:14.054Z,2.10
2018-10-01T20:10:17.217Z,2.07
2018-10-01T20:12:20.461Z,2.03
2018-10-01T20:14:23.511Z,1.77
2018-10-01T20:16:26.724Z,1.90
2018-10-01T20:18:29.795Z,2.20
2018-10-01T20:20:32.857Z,1.83
2018-10-01T20:22:35.878Z,2.40
2018-10-01T20:24:39.205Z,1.97
2018-10-01T20:26:42.470Z,1.67
2018-10-01T20:28:45.688Z,2.10
2018-10-01T20:30:48.439Z,2.07
2018-10-01T20:32:53.271Z,2.00
2018-10-01T20:34:56.416Z,2.13
2018-10-01T20:36:59.589Z,2.23
2018-10-01T20:39:03.184Z,2.27
2018-10-01T20:41:06.321Z,1.80
2018-10-01T20:43:09.403Z,2.27
2018-10-01T20:45:12.471Z,2.37
2018-10-01T20:47:15.608Z,1.83
2018-10-01T20:49:18.644Z,2.30
2018-10-01T20:51:23.208Z,1.60
2018-10-01T20:53:26.365Z,1.90
2018-10-01T20:55:29.379Z,2.53
2018-10-01T20:57:32.449Z,2.07
2018-10-01T20:59:35.472Z,2.20
2018-10-01T21:01:38.554Z,2.20
2018-10-01T21:03:41.639Z,1.83
2018-10-01T21:05:44.846Z,2.00
2018-10-01T21:07:48.216Z,1.90
2018-10-01T21:09:52.752Z,1.90
2018-10-01T21:11:55.792Z,2.20
2018-10-01T21:13:59.213Z,1.87
2018-10-01T21:16:02.303Z,2.33
2018-10-01T21:18:05.387Z,1.77
2018-10-01T21:20:08.513Z,1.80
2018-10-01T21:22:11.653Z,2.40
2018-10-01T21:24:14.758Z,2.20
2018-10-01T21:26:18.101Z,1.90
2018-10-01T21:28:21.671Z,1.87
2018-10-01T21:30:24.700Z,2.13
2018-10-01T21:32:27.756Z,1.73
2018-10-01T21:34:30.852Z,1.57
2018-10-01T21:36:33.940Z,1.73
2018-10-01T21:38:41.200Z,1.90
2018-10-01T21:40:44.307Z,1.60
2018-10-01T21:42:47.360Z,1.60
2018-10-01T21:44:50.453Z,2.10
2018-10-01T21:46:54.440Z,2.33
2018-10-01T21:48:57.831Z,1.80
2018-10-01T21:51:00.856Z,1.40
2018-10-01T21:53:03.968Z,1.43
2018-10-01T21:55:07.928Z,2.17
2018-10-01T21:57:10.994Z,1.67
2018-10-01T21:59:14.056Z,1.40
2018-10-01T22:01:23.152Z,1.90
2018-10-01T22:03:26.181Z,1.90
2018-10-01T22:05:29.244Z,1.70
2018-10-01T22:07:32.284Z,2.00
2018-10-01T22:09:35.312Z,1.47
2018-10-01T22:11:38.444Z,1.80
2018-10-01T22:13:41.488Z,1.40
2018-10-01T22:15:44.846Z,1.30
2018-10-01T22:17:47.936Z,1.33
2018-10-01T22:19:52.507Z,1.50
2018-10-01T22:21:55.629Z,1.63
2018-10-01T22:23:58.714Z,1.53
2018-10-01T22:26:01.798Z,1.63
2018-10-01T22:28:05.246Z,1.80
2018-10-01T22:30:08.641Z,1.90
2018-10-01T22:32:11.712Z,1.70
2018-10-01T22:34:14.763Z,2.13
2018-10-01T22:36:17.830Z,2.13
2018-10-01T22:38:22.105Z,1.90
2018-10-01T22:40:25.172Z,1.53
2018-10-01T22:42:28.589Z,2.30
2018-10-01T22:44:31.651Z,2.20
2018-10-01T22:46:34.760Z,2.00
2018-10-01T22:48:37.847Z,1.87
2018-10-01T22:50:40.919Z,2.30
2018-10-01T22:52:44.032Z,1.90
2018-10-01T22:54:47.123Z,2.07
2018-10-01T22:56:52.276Z,2.00
2018-10-01T22:58:55.426Z,1.93
2018-10-01T23:00:58.770Z,2.27
2018-10-01T23:03:01.823Z,2.17
2018-10-01T23:05:05.123Z,1.87
2018-10-01T23:07:08.187Z,2.13
2018-10-01T23:09:11.295Z,1.87
2018-10-01T23:11:14.363Z,1.77
2018-10-01T23:13:17.445Z,2.20
2018-10-01T23:15:20.491Z,2.03
2018-10-01T23:17:24.461Z,2.00
2018-10-01T23:19:27.578Z,2.60
2018-10-01T23:21:30.690Z,2.55
2018-10-01T23:23:33.683Z,2.00
2018-10-01T23:25:36.752Z,2.50
2018-10-01T23:27:39.776Z,2.10
2018-10-01T23:29:43.007Z,2.20
2018-10-01T23:31:46.123Z,2.05
2018-10-01T23:33:49.283Z,2.37
2018-10-01T23:35:54.087Z,2.30
2018-10-01T23:37:57.118Z,2.77
2018-10-01T23:40:00.220Z,2.17
2018-10-01T23:42:03.335Z,1.87
2018-10-01T23:44:06.386Z,1.82
2018-10-01T23:46:09.729Z,2.02
2018-10-01T23:48:12.755Z,2.53
2018-10-01T23:50:15.815Z,3.10
2018-10-01T23:52:18.967Z,2.90
2018-10-01T23:54:23.399Z,2.42
2018-10-01T23:56:26.462Z,3.50
2018-10-01T23:58:29.563Z,1.90
